Time,TemperatureF,DewpointF,PressureIn,WindDirection,WindDirectionDegrees,WindSpeedMPH,WindSpeedGustMPH,Humidity,HourlyPrecipIn,Conditions,Clouds,dailyrainin,SoftwareType,DateUTC
2013-06-07 00:09:00,66.4,55.0,29.79,North,-999,0.0,0.0,67,0.00,,,-99.99,FreeWX 2.04,2013-06-07 04:09:00,
2013-06-07 00:19:00,66.4,55.4,29.79,North,-999,0.0,0.0,68,0.00,,,-99.99,FreeWX 2.04,2013-06-07 04:19:00,
2013-06-07 00:29:00,66.4,55.9,29.79,North,-999,0.0,0.0,69,0.00,,,-99.99,FreeWX 2.04,2013-06-07 04:29:00,
2013-06-07 00:39:00,66.4,55.4,29.79,North,-999,0.0,0.0,68,0.00,,,-99.99,FreeWX 2.04,2013-06-07 04:39:00,
2013-06-07 00:49:00,66.2,55.8,29.79,North,-999,0.0,0.0,69,0.00,,,-99.99,FreeWX 2.04,2013-06-07 04:49:00,
2013-06-07 00:59:00,66.2,55.8,29.79,North,-999,0.0,0.0,69,0.00,,,-99.99,FreeWX 2.04,2013-06-07 04:59:00,
2013-06-07 01:09:00,66.0,55.6,29.79,North,-999,0.0,0.0,69,0.00,,,-99.99,FreeWX 2.04,2013-06-07 05:09:00,
2013-06-07 01:19:00,66.0,55.6,29.79,North,-999,0.0,0.0,69,0.00,,,-99.99,FreeWX 2.04,2013-06-07 05:19:00,
2013-06-07 01:29:00,65.7,54.9,29.79,North,-999,0.0,0.0,68,0.00,,,-99.99,FreeWX 2.04,2013-06-07 05:29:00,
2013-06-07 01:39:00,66.0,55.9,29.76,North,-999,0.0,0.0,70,0.00,,,-99.99,FreeWX 2.04,2013-06-07 05:39:00,
2013-06-07 01:49:00,65.8,55.8,29.79,North,-999,0.0,0.0,70,0.00,,,-99.99,FreeWX 2.04,2013-06-07 05:49:00,
2013-06-07 01:59:00,65.8,55.4,29.79,North,-999,0.0,0.0,69,0.00,,,-99.99,FreeWX 2.04,2013-06-07 05:59:00,
2013-06-07 02:09:00,65.8,55.8,29.76,North,-999,0.0,0.0,70,0.00,,,-99.99,FreeWX 2.04,2013-06-07 06:09:00,
2013-06-07 02:19:00,65.8,55.8,29.76,North,-999,0.0,0.0,70,0.00,,,-99.99,FreeWX 2.04,2013-06-07 06:19:00,
2013-06-07 02:29:00,66.0,56.3,29.76,North,-999,0.0,0.0,71,0.00,,,-99.99,FreeWX 2.04,2013-06-07 06:29:00,
2013-06-07 02:39:00,65.7,55.6,29.76,North,-999,0.0,0.0,70,0.00,,,-99.99,FreeWX 2.04,2013-06-07 06:39:00,
2013-06-07 02:49:00,65.8,56.1,29.76,North,-999,0.0,0.0,71,0.00,,,-99.99,FreeWX 2.04,2013-06-07 06:49:00,
2013-06-07 02:59:00,66.0,56.7,29.76,North,-999,0.0,3.1,72,0.00,,,-99.99,FreeWX 2.04,2013-06-07 06:59:00,
2013-06-07 03:09:00,66.2,57.7,29.76,North,-999,0.0,2.7,74,0.00,,,-99.99,FreeWX 2.04,2013-06-07 07:09:00,
2013-06-07 03:19:00,66.4,58.3,29.76,North,-999,0.0,4.0,75,0.00,,,-99.99,FreeWX 2.04,2013-06-07 07:19:00,
2013-06-07 03:29:00,66.2,58.5,29.76,South,180,1.0,4.5,76,0.00,,,-99.99,FreeWX 2.04,2013-06-07 07:29:00,
2013-06-07 03:39:00,66.2,58.8,29.76,North,-999,0.0,4.0,77,0.00,,,-99.99,FreeWX 2.04,2013-06-07 07:39:00,
2013-06-07 03:49:00,66.2,58.8,29.76,North,-999,0.0,7.4,77,0.00,,,-99.99,FreeWX 2.04,2013-06-07 07:49:00,
2013-06-07 03:59:00,66.0,58.6,29.76,North,-999,0.0,4.0,77,0.00,,,-99.99,FreeWX 2.04,2013-06-07 07:59:00,
2013-06-07 04:09:00,66.0,58.6,29.76,North,-999,0.0,3.6,77,0.00,,,-99.99,FreeWX 2.04,2013-06-07 08:09:00,
2013-06-07 04:19:00,66.0,58.6,29.76,North,-999,0.0,5.8,77,0.00,,,-99.99,FreeWX 2.04,2013-06-07 08:19:00,
2013-06-07 04:29:00,65.8,58.1,29.76,North,-999,0.0,4.0,76,0.00,,,-99.99,FreeWX 2.04,2013-06-07 08:29:00,
2013-06-07 04:39:00,65.8,58.1,29.76,North,-999,0.0,4.0,76,0.00,,,-99.99,FreeWX 2.04,2013-06-07 08:39:00,
2013-06-07 04:49:00,65.8,58.1,29.76,North,-999,0.0,3.1,76,0.00,,,-99.99,FreeWX 2.04,2013-06-07 08:49:00,
2013-06-07 04:59:00,65.8,57.7,29.76,North,-999,0.0,2.7,75,0.00,,,-99.99,FreeWX 2.04,2013-06-07 08:59:00,
2013-06-07 05:09:00,65.7,57.6,29.76,North,-999,0.0,2.7,75,0.00,,,-99.99,FreeWX 2.04,2013-06-07 09:09:00,
2013-06-07 05:19:00,65.7,57.6,29.76,North,-999,0.0,2.7,75,0.00,,,-99.99,FreeWX 2.04,2013-06-07 09:19:00,
2013-06-07 05:29:00,65.7,57.6,29.76,North,-999,0.0,2.7,75,0.00,,,-99.99,FreeWX 2.04,2013-06-07 09:29:00,
2013-06-07 05:39:00,65.5,57.4,29.76,North,-999,0.0,2.7,75,0.00,,,-99.99,FreeWX 2.04,2013-06-07 09:39:00,
2013-06-07 05:49:00,65.5,57.4,29.76,North,-999,0.0,0.0,75,0.00,,,-99.99,FreeWX 2.04,2013-06-07 09:49:00,
2013-06-07 05:59:00,65.5,57.4,29.76,North,-999,0.0,0.0,75,0.00,,,-99.99,FreeWX 2.04,2013-06-07 09:59:00,
2013-06-07 06:09:00,65.5,57.4,29.76,North,-999,0.0,2.7,75,0.00,,,-99.99,FreeWX 2.04,2013-06-07 10:09:00,
2013-06-07 06:19:00,65.5,57.0,29.76,North,-999,0.0,0.0,74,0.00,,,-99.99,FreeWX 2.04,2013-06-07 10:19:00,
2013-06-07 06:29:00,65.3,56.8,29.76,North,-999,0.0,3.1,74,0.00,,,-99.99,FreeWX 2.04,2013-06-07 10:29:00,
2013-06-07 06:39:00,65.3,57.2,29.76,North,-999,0.0,0.0,75,0.00,,,-99.99,FreeWX 2.04,2013-06-07 10:39:00,
2013-06-07 06:49:00,65.3,57.2,29.76,North,-999,0.0,0.0,75,0.00,,,-99.99,FreeWX 2.04,2013-06-07 10:49:00,
2013-06-07 06:59:00,65.3,56.8,29.76,North,-999,0.0,4.5,74,0.00,,,-99.99,FreeWX 2.04,2013-06-07 10:59:00,
2013-06-07 07:10:00,65.3,57.2,29.76,South,191,1.0,4.5,75,0.00,,,-99.99,FreeWX 2.04,2013-06-07 11:10:00,
2013-06-07 07:20:00,65.1,57.0,29.76,North,-999,0.0,3.6,75,0.00,,,-99.99,FreeWX 2.04,2013-06-07 11:20:00,
2013-06-07 07:30:00,65.1,57.0,29.76,North,-999,0.0,3.1,75,0.00,,,-99.99,FreeWX 2.04,2013-06-07 11:30:00,
2013-06-07 07:40:00,65.3,57.2,29.76,North,-999,0.0,5.4,75,0.00,,,-99.99,FreeWX 2.04,2013-06-07 11:40:00,
2013-06-07 07:50:00,65.1,56.7,29.76,North,-999,0.0,5.8,74,0.00,,,-99.99,FreeWX 2.04,2013-06-07 11:50:00,
2013-06-07 08:00:00,64.9,56.1,29.76,North,-999,0.0,3.6,73,0.00,,,-99.99,FreeWX 2.04,2013-06-07 12:00:00,
2013-06-07 08:10:00,64.9,56.1,29.76,North,-999,0.0,3.1,73,0.00,,,-99.99,FreeWX 2.04,2013-06-07 12:10:00,
2013-06-07 08:20:00,64.9,55.8,29.76,SSW,199,1.0,4.0,72,0.00,,,-99.99,FreeWX 2.04,2013-06-07 12:20:00,
2013-06-07 08:30:00,64.6,55.4,29.76,South,181,2.0,4.9,72,0.00,,,-99.99,FreeWX 2.04,2013-06-07 12:30:00,
2013-06-07 08:40:00,64.6,55.4,29.76,SW,222,1.0,6.7,72,0.00,,,-99.99,FreeWX 2.04,2013-06-07 12:40:00,
2013-06-07 08:50:00,64.4,55.2,29.76,SSW,195,1.0,4.0,72,0.00,,,-99.99,FreeWX 2.04,2013-06-07 12:50:00,
2013-06-07 09:00:00,64.2,54.7,29.76,South,185,2.0,4.9,71,0.00,,,-99.99,FreeWX 2.04,2013-06-07 13:00:00,
2013-06-07 09:10:00,64.2,55.0,29.79,North,-999,0.0,3.6,72,0.00,,,-99.99,FreeWX 2.04,2013-06-07 13:10:00,
2013-06-07 09:20:00,63.9,54.3,29.79,South,182,1.0,3.6,71,0.00,,,-99.99,FreeWX 2.04,2013-06-07 13:20:00,
2013-06-07 09:30:00,63.7,54.1,29.79,North,-999,0.0,3.1,71,0.00,,,-99.99,FreeWX 2.04,2013-06-07 13:30:00,
2013-06-07 09:40:00,63.9,54.3,29.79,South,177,1.0,4.0,71,0.00,,,-99.99,FreeWX 2.04,2013-06-07 13:40:00,
2013-06-07 09:50:00,63.7,54.1,29.79,South,184,2.0,4.9,71,0.00,,,-99.99,FreeWX 2.04,2013-06-07 13:50:00,
2013-06-07 10:00:00,63.9,54.0,29.79,South,183,1.0,4.0,70,0.00,,,-99.99,FreeWX 2.04,2013-06-07 14:00:00,
2013-06-07 10:10:00,64.0,54.1,29.79,SSW,201,1.0,4.0,70,0.00,,,-99.99,FreeWX 2.04,2013-06-07 14:10:00,
2013-06-07 10:20:00,64.0,53.6,29.79,North,-999,0.0,3.6,69,0.00,,,-99.99,FreeWX 2.04,2013-06-07 14:20:00,
2013-06-07 10:30:00,64.0,53.6,29.79,North,-999,0.0,3.6,69,0.00,,,-99.99,FreeWX 2.04,2013-06-07 14:30:00,
2013-06-07 10:40:00,64.2,53.8,29.79,SSW,193,1.0,7.4,69,0.00,,,-99.99,FreeWX 2.04,2013-06-07 14:40:00,
2013-06-07 10:50:00,64.2,53.4,29.79,SSW,193,2.0,4.9,68,0.00,,,-99.99,FreeWX 2.04,2013-06-07 14:50:00,
2013-06-07 11:00:00,64.2,53.1,29.79,North,-999,0.0,4.0,67,0.00,,,-99.99,FreeWX 2.04,2013-06-07 15:00:00,
2013-06-07 11:10:00,64.2,52.2,29.79,South,186,2.0,4.5,65,0.00,,,-99.99,FreeWX 2.04,2013-06-07 15:10:00,
2013-06-07 11:20:00,64.4,52.3,29.79,North,-999,0.0,3.6,65,0.00,,,-99.99,FreeWX 2.04,2013-06-07 15:20:00,
2013-06-07 11:30:00,64.9,53.2,29.79,North,-999,0.0,3.1,66,0.00,,,-99.99,FreeWX 2.04,2013-06-07 15:30:00,
2013-06-07 11:40:00,65.3,52.3,29.79,North,-999,0.0,4.0,63,0.00,,,-99.99,FreeWX 2.04,2013-06-07 15:40:00,
2013-06-07 11:50:00,65.8,52.5,29.79,North,-999,0.0,3.1,62,0.00,,,-99.99,FreeWX 2.04,2013-06-07 15:50:00,
2013-06-07 12:00:00,65.8,50.7,29.79,SSW,198,1.0,4.9,58,0.00,,,-99.99,FreeWX 2.04,2013-06-07 16:00:00,
2013-06-07 12:10:00,66.4,51.1,29.79,North,-999,0.0,3.1,58,0.00,,,-99.99,FreeWX 2.04,2013-06-07 16:10:00,
2013-06-07 12:20:00,66.4,50.2,29.79,North,-999,0.0,3.6,56,0.00,,,-99.99,FreeWX 2.04,2013-06-07 16:20:00,
2013-06-07 12:30:00,66.9,48.7,29.79,South,190,1.0,4.5,52,0.00,,,-99.99,FreeWX 2.04,2013-06-07 16:30:00,
2013-06-07 12:40:00,68.0,50.2,29.79,North,-999,0.0,3.6,53,0.00,,,-99.99,FreeWX 2.04,2013-06-07 16:40:00,
2013-06-07 12:50:00,69.6,49.6,29.79,North,-999,0.0,4.0,49,0.00,,,-99.99,FreeWX 2.04,2013-06-07 16:50:00,
2013-06-07 13:00:00,72.1,46.4,29.79,North,-999,0.0,4.5,40,0.00,,,-99.99,FreeWX 2.04,2013-06-07 17:00:00,
2013-06-07 13:10:00,71.4,45.1,29.79,North,-999,0.0,4.5,39,0.00,,,-99.99,FreeWX 2.04,2013-06-07 17:10:00,
2013-06-07 13:21:00,71.6,43.9,29.79,North,-999,0.0,4.5,37,0.00,,,-99.99,FreeWX 2.04,2013-06-07 17:21:00,
2013-06-07 13:31:00,72.1,43.0,29.79,SSW,195,1.0,4.9,35,0.00,,,-99.99,FreeWX 2.04,2013-06-07 17:31:00,
2013-06-07 13:41:00,71.2,42.1,29.79,North,-999,0.0,4.5,35,0.00,,,-99.99,FreeWX 2.04,2013-06-07 17:41:00,
2013-06-07 13:51:00,72.1,43.7,29.79,SSW,209,1.0,4.9,36,0.00,,,-99.99,FreeWX 2.04,2013-06-07 17:51:00,
2013-06-07 14:01:00,71.6,42.4,29.79,SSW,193,1.0,4.9,35,0.00,,,-99.99,FreeWX 2.04,2013-06-07 18:01:00,
2013-06-07 14:11:00,73.8,42.1,29.79,SSW,195,3.0,4.9,32,0.00,,,-99.99,FreeWX 2.04,2013-06-07 18:11:00,
2013-06-07 14:52:00,74.5,43.5,29.79,North,-999,0.0,3.6,33,0.00,,,-99.99,FreeWX 2.04,2013-06-07 18:52:00,
2013-06-07 15:02:00,73.6,41.0,29.79,SSW,192,1.0,4.9,31,0.00,,,-99.99,FreeWX 2.04,2013-06-07 19:02:00,
2013-06-07 15:12:00,75.4,39.9,29.79,SSW,198,2.0,4.5,28,0.00,,,-99.99,FreeWX 2.04,2013-06-07 19:12:00,
2013-06-07 15:22:00,76.8,39.4,29.76,SSW,212,2.0,6.7,26,0.00,,,-99.99,FreeWX 2.04,2013-06-07 19:22:00,
2013-06-07 15:42:00,75.9,38.5,29.79,South,174,2.0,4.0,26,0.00,,,-99.99,FreeWX 2.04,2013-06-07 19:42:00,
2013-06-07 15:52:00,75.6,36.1,29.76,South,182,3.0,4.9,24,0.00,,,-99.99,FreeWX 2.04,2013-06-07 19:52:00,
2013-06-07 16:02:00,75.9,37.6,29.76,ESE,104,2.0,4.9,25,0.00,,,-99.99,FreeWX 2.04,2013-06-07 20:02:00,
2013-06-07 16:22:00,75.2,36.9,29.76,SW,218,2.0,5.8,25,0.00,,,-99.99,FreeWX 2.04,2013-06-07 20:22:00,
2013-06-07 16:33:00,75.0,40.6,29.76,WNW,287,2.0,4.9,29,0.00,,,-99.99,FreeWX 2.04,2013-06-07 20:33:00,
2013-06-07 16:43:00,75.0,38.8,29.76,West,278,3.0,6.7,27,0.00,,,-99.99,FreeWX 2.04,2013-06-07 20:43:00,
2013-06-07 16:53:00,73.4,41.0,29.76,SSE,168,1.0,4.0,31,0.00,,,-99.99,FreeWX 2.04,2013-06-07 20:53:00,
2013-06-07 17:03:00,73.9,43.0,29.76,ENE,58,1.0,3.6,33,0.00,,,-99.99,FreeWX 2.04,2013-06-07 21:03:00,
2013-06-07 17:13:00,72.5,40.1,29.76,SSW,205,2.0,4.9,31,0.00,,,-99.99,FreeWX 2.04,2013-06-07 21:13:00,
2013-06-07 17:23:00,72.1,40.6,29.76,North,-999,0.0,0.0,32,0.00,,,-99.99,FreeWX 2.04,2013-06-07 21:23:00,
2013-06-07 17:33:00,72.0,40.5,29.76,South,177,2.0,4.5,32,0.00,,,-99.99,FreeWX 2.04,2013-06-07 21:33:00,
2013-06-07 17:43:00,71.8,41.2,29.76,SSW,207,1.0,4.5,33,0.00,,,-99.99,FreeWX 2.04,2013-06-07 21:43:00,
2013-06-07 18:03:00,71.8,41.2,29.79,South,184,2.0,6.3,33,0.00,,,-99.99,FreeWX 2.04,2013-06-07 22:03:00,
2013-06-07 18:34:00,70.0,43.2,29.79,SSE,158,1.0,6.7,38,0.00,,,-99.99,FreeWX 2.04,2013-06-07 22:34:00,
2013-06-07 18:44:00,70.0,43.9,29.79,WNW,285,2.0,5.8,39,0.00,,,-99.99,FreeWX 2.04,2013-06-07 22:44:00,
2013-06-07 18:54:00,69.4,43.3,29.79,South,181,1.0,5.4,39,0.00,,,-99.99,FreeWX 2.04,2013-06-07 22:54:00,
2013-06-07 19:04:00,69.1,44.4,29.79,WNW,283,1.0,6.3,41,0.00,,,-99.99,FreeWX 2.04,2013-06-07 23:04:00,
2013-06-07 19:14:00,69.3,44.6,29.79,SSW,192,1.0,6.7,41,0.00,,,-99.99,FreeWX 2.04,2013-06-07 23:14:00,
2013-06-07 19:24:00,69.1,45.0,29.79,SSW,197,1.0,5.8,42,0.00,,,-99.99,FreeWX 2.04,2013-06-07 23:24:00,
2013-06-07 19:34:00,68.5,44.6,29.82,South,181,1.0,4.5,42,0.00,,,-99.99,FreeWX 2.04,2013-06-07 23:34:00,
2013-06-07 19:44:00,68.0,44.1,29.82,South,182,2.0,4.5,42,0.00,,,-99.99,FreeWX 2.04,2013-06-07 23:44:00,
2013-06-07 19:54:00,67.6,44.4,29.82,South,184,2.0,4.0,43,0.00,,,-99.99,FreeWX 2.04,2013-06-07 23:54:00,
2013-06-07 20:04:00,67.3,44.1,29.82,North,-999,0.0,4.9,43,0.00,,,-99.99,FreeWX 2.04,2013-06-08 00:04:00,
2013-06-07 20:14:00,66.9,43.7,29.82,SSE,162,1.0,4.5,43,0.00,,,-99.99,FreeWX 2.04,2013-06-08 00:14:00,
2013-06-07 20:34:00,66.2,43.7,29.82,North,-999,0.0,3.6,44,0.00,,,-99.99,FreeWX 2.04,2013-06-08 00:34:00,
2013-06-07 20:44:00,66.0,44.1,29.82,North,-999,0.0,0.0,45,0.00,,,-99.99,FreeWX 2.04,2013-06-08 00:44:00,
2013-06-07 20:54:00,65.8,43.9,29.85,North,-999,0.0,2.7,45,0.00,,,-99.99,FreeWX 2.04,2013-06-08 00:54:00,
2013-06-07 21:04:00,65.7,45.0,29.85,North,-999,0.0,0.0,47,0.00,,,-99.99,FreeWX 2.04,2013-06-08 01:04:00,
2013-06-07 21:35:00,64.6,46.0,29.85,North,-999,0.0,0.0,51,0.00,,,-99.99,FreeWX 2.04,2013-06-08 01:35:00,
2013-06-07 21:55:00,64.2,46.8,29.85,North,-999,0.0,0.0,53,0.00,,,-99.99,FreeWX 2.04,2013-06-08 01:55:00,
2013-06-07 22:16:00,63.5,46.0,29.85,North,-999,0.0,0.0,53,0.00,,,-99.99,FreeWX 2.04,2013-06-08 02:16:00,
2013-06-07 22:36:00,63.1,46.8,29.85,North,-999,0.0,0.0,55,0.00,,,-99.99,FreeWX 2.04,2013-06-08 02:36:00,
2013-06-07 22:46:00,63.0,46.6,29.85,North,-999,0.0,0.0,55,0.00,,,-99.99,FreeWX 2.04,2013-06-08 02:46:00,
2013-06-07 23:17:00,62.2,46.8,29.88,North,-999,0.0,0.0,57,0.00,,,-99.99,FreeWX 2.04,2013-06-08 03:17:00,
2013-06-07 23:27:00,62.1,47.1,29.88,North,-999,0.0,0.0,58,0.00,,,-99.99,FreeWX 2.04,2013-06-08 03:27:00,
2013-06-07 23:37:00,61.9,46.9,29.88,North,-999,0.0,0.0,58,0.00,,,-99.99,FreeWX 2.04,2013-06-08 03:37:00,
2013-06-07 23:47:00,61.7,46.8,29.88,North,-999,0.0,0.0,58,0.00,,,-99.99,FreeWX 2.04,2013-06-08 03:47:00,
2013-06-07 23:57:00,61.5,47.5,29.88,North,-999,0.0,0.0,60,0.00,,,-99.99,FreeWX 2.04,2013-06-08 03:57:00,